sensor_id;sensor_type;location;lat;lon;timestamp;temperature;humidity
17740;DHT22;8990;33.226;-97.150;2023-02-01T00:02:05;-1.30;99.90
17740;DHT22;8990;33.226;-97.150;2023-02-01T00:04:35;-1.30;99.90
17740;DHT22;8990;33.226;-97.150;2023-02-01T00:07:04;-1.20;99.90
17740;DHT22;8990;33.226;-97.150;2023-02-01T00:09:35;-1.30;99.90
17740;DHT22;8990;33.226;-97.150;2023-02-01T00:12:04;-1.40;99.90
17740;DHT22;8990;33.226;-97.150;2023-02-01T00:14:38;-1.20;99.90
17740;DHT22;8990;33.226;-97.150;2023-02-01T00:17:11;-1.40;99.90
17740;DHT22;8990;33.226;-97.150;2023-02-01T00:19:41;-1.40;99.90
17740;DHT22;8990;33.226;-97.150;2023-02-01T00:22:10;-1.30;99.90
17740;DHT22;8990;33.226;-97.150;2023-02-01T00:24:41;-1.30;99.90
17740;DHT22;8990;33.226;-97.150;2023-02-01T00:27:11;-1.30;99.90
17740;DHT22;8990;33.226;-97.150;2023-02-01T00:29:44;-1.20;99.90
17740;DHT22;8990;33.226;-97.150;2023-02-01T00:32:15;-1.40;99.90
17740;DHT22;8990;33.226;-97.150;2023-02-01T00:34:46;-1.40;99.90
17740;DHT22;8990;33.226;-97.150;2023-02-01T00:37:15;-1.20;99.90
17740;DHT22;8990;33.226;-97.150;2023-02-01T00:39:46;-1.40;99.90
17740;DHT22;8990;33.226;-97.150;2023-02-01T00:42:17;-1.40;99.90
17740;DHT22;8990;33.226;-97.150;2023-02-01T00:44:46;-1.30;99.90
17740;DHT22;8990;33.226;-97.150;2023-02-01T00:47:17;-1.30;99.90
17740;DHT22;8990;33.226;-97.150;2023-02-01T00:49:47;-1.40;99.90
17740;DHT22;8990;33.226;-97.150;2023-02-01T00:52:16;-1.30;99.90
17740;DHT22;8990;33.226;-97.150;2023-02-01T00:54:45;-1.30;99.90
17740;DHT22;8990;33.226;-97.150;2023-02-01T00:57:15;-1.30;99.90
17740;DHT22;8990;33.226;-97.150;2023-02-01T00:59:45;-1.30;99.90
17740;DHT22;8990;33.226;-97.150;2023-02-01T01:02:17;-1.20;99.90
17740;DHT22;8990;33.226;-97.150;2023-02-01T01:04:47;-1.20;99.90
17740;DHT22;8990;33.226;-97.150;2023-02-01T01:07:16;-1.40;99.90
17740;DHT22;8990;33.226;-97.150;2023-02-01T01:09:47;-1.40;99.90
17740;DHT22;8990;33.226;-97.150;2023-02-01T01:12:17;-1.20;99.90
17740;DHT22;8990;33.226;-97.150;2023-02-01T01:14:47;-1.30;99.90
17740;DHT22;8990;33.226;-97.150;2023-02-01T01:17:19;-1.30;99.90
17740;DHT22;8990;33.226;-97.150;2023-02-01T01:19:51;-1.10;99.90
17740;DHT22;8990;33.226;-97.150;2023-02-01T01:22:21;-1.20;99.90
17740;DHT22;8990;33.226;-97.150;2023-02-01T01:24:51;-1.20;99.90
17740;DHT22;8990;33.226;-97.150;2023-02-01T01:27:22;-1.30;99.90
17740;DHT22;8990;33.226;-97.150;2023-02-01T01:29:51;-1.40;99.90
17740;DHT22;8990;33.226;-97.150;2023-02-01T01:32:22;-1.30;99.90
17740;DHT22;8990;33.226;-97.150;2023-02-01T01:34:53;-1.30;99.90
17740;DHT22;8990;33.226;-97.150;2023-02-01T01:37:22;-1.40;99.90
17740;DHT22;8990;33.226;-97.150;2023-02-01T01:39:51;-1.40;99.90
17740;DHT22;8990;33.226;-97.150;2023-02-01T01:42:23;-1.50;99.90
17740;DHT22;8990;33.226;-97.150;2023-02-01T01:45:01;-1.40;99.90
17740;DHT22;8990;33.226;-97.150;2023-02-01T01:47:38;-1.50;99.90
17740;DHT22;8990;33.226;-97.150;2023-02-01T01:50:13;-1.50;99.90
17740;DHT22;8990;33.226;-97.150;2023-02-01T01:52:50;-1.50;99.90
17740;DHT22;8990;33.226;-97.150;2023-02-01T01:55:23;-1.30;99.90
17740;DHT22;8990;33.226;-97.150;2023-02-01T01:57:57;-1.50;99.90
17740;DHT22;8990;33.226;-97.150;2023-02-01T02:00:28;-1.40;99.90
17740;DHT22;8990;33.226;-97.150;2023-02-01T02:03:03;-1.40;99.90
17740;DHT22;8990;33.226;-97.150;2023-02-01T02:05:36;-1.30;99.90
17740;DHT22;8990;33.226;-97.150;2023-02-01T02:08:06;-1.30;99.90
17740;DHT22;8990;33.226;-97.150;2023-02-01T02:10:37;-1.40;99.90
17740;DHT22;8990;33.226;-97.150;2023-02-01T02:13:24;-1.60;99.90
17740;DHT22;8990;33.226;-97.150;2023-02-01T02:16:06;-1.30;99.90
17740;DHT22;8990;33.226;-97.150;2023-02-01T02:18:47;-1.40;99.90
17740;DHT22;8990;33.226;-97.150;2023-02-01T02:21:42;-1.30;99.90
17740;DHT22;8990;33.226;-97.150;2023-02-01T02:27:46;-1.40;99.90
17740;DHT22;8990;33.226;-97.150;2023-02-01T02:30:37;-1.40;99.90
17740;DHT22;8990;33.226;-97.150;2023-02-01T02:33:37;-1.30;99.90
17740;DHT22;8990;33.226;-97.150;2023-02-01T02:36:10;-1.30;99.90
17740;DHT22;8990;33.226;-97.150;2023-02-01T02:38:49;-1.30;99.90
17740;DHT22;8990;33.226;-97.150;2023-02-01T02:41:23;-1.40;99.90
17740;DHT22;8990;33.226;-97.150;2023-02-01T02:44:16;-1.20;99.90
17740;DHT22;8990;33.226;-97.150;2023-02-01T02:47:13;-1.40;99.90
17740;DHT22;8990;33.226;-97.150;2023-02-01T02:50:05;-1.30;99.90
17740;DHT22;8990;33.226;-97.150;2023-02-01T02:52:57;-1.40;99.90
17740;DHT22;8990;33.226;-97.150;2023-02-01T02:55:48;-1.30;99.90
17740;DHT22;8990;33.226;-97.150;2023-02-01T02:58:20;-1.20;99.90
17740;DHT22;8990;33.226;-97.150;2023-02-01T03:01:07;-1.40;99.90
17740;DHT22;8990;33.226;-97.150;2023-02-01T03:03:53;-1.20;99.90
17740;DHT22;8990;33.226;-97.150;2023-02-01T03:06:39;-1.30;99.90
17740;DHT22;8990;33.226;-97.150;2023-02-01T03:09:14;-1.40;99.90
17740;DHT22;8990;33.226;-97.150;2023-02-01T03:11:48;-1.30;99.90
17740;DHT22;8990;33.226;-97.150;2023-02-01T03:14:37;-1.30;99.90
17740;DHT22;8990;33.226;-97.150;2023-02-01T03:17:14;-1.40;99.90
17740;DHT22;8990;33.226;-97.150;2023-02-01T03:19:48;-1.40;99.90
17740;DHT22;8990;33.226;-97.150;2023-02-01T03:22:24;-1.40;99.90
17740;DHT22;8990;33.226;-97.150;2023-02-01T03:25:03;-1.40;99.90
17740;DHT22;8990;33.226;-97.150;2023-02-01T03:27:36;-1.30;99.90
17740;DHT22;8990;33.226;-97.150;2023-02-01T03:30:09;-1.40;99.90
17740;DHT22;8990;33.226;-97.150;2023-02-01T03:32:43;-1.50;99.90
17740;DHT22;8990;33.226;-97.150;2023-02-01T03:35:40;-1.40;99.90
17740;DHT22;8990;33.226;-97.150;2023-02-01T03:38:17;-1.40;99.90
17740;DHT22;8990;33.226;-97.150;2023-02-01T03:40:53;-1.40;99.90
17740;DHT22;8990;33.226;-97.150;2023-02-01T03:43:26;-1.50;99.90
17740;DHT22;8990;33.226;-97.150;2023-02-01T03:46:00;-1.60;99.90
17740;DHT22;8990;33.226;-97.150;2023-02-01T03:48:30;-1.50;99.90
17740;DHT22;8990;33.226;-97.150;2023-02-01T03:51:04;-1.40;99.90
17740;DHT22;8990;33.226;-97.150;2023-02-01T03:53:37;-1.40;99.90
17740;DHT22;8990;33.226;-97.150;2023-02-01T03:56:09;-1.30;99.90
17740;DHT22;8990;33.226;-97.150;2023-02-01T03:58:40;-1.50;99.90
17740;DHT22;8990;33.226;-97.150;2023-02-01T04:01:27;-1.50;99.90
17740;DHT22;8990;33.226;-97.150;2023-02-01T04:03:58;-1.30;99.90
17740;DHT22;8990;33.226;-97.150;2023-02-01T04:06:27;-1.30;99.90
17740;DHT22;8990;33.226;-97.150;2023-02-01T04:09:03;-1.40;99.90
17740;DHT22;8990;33.226;-97.150;2023-02-01T04:11:33;-1.50;99.90
17740;DHT22;8990;33.226;-97.150;2023-02-01T04:14:03;-1.50;99.90
17740;DHT22;8990;33.226;-97.150;2023-02-01T04:16:32;-1.40;99.90
17740;DHT22;8990;33.226;-97.150;2023-02-01T04:19:04;-1.40;99.90
17740;DHT22;8990;33.226;-97.150;2023-02-01T04:21:34;-1.40;99.90
17740;DHT22;8990;33.226;-97.150;2023-02-01T04:24:06;-1.30;99.90
17740;DHT22;8990;33.226;-97.150;2023-02-01T04:26:37;-1.30;99.90
17740;DHT22;8990;33.226;-97.150;2023-02-01T04:29:11;-1.40;99.90
17740;DHT22;8990;33.226;-97.150;2023-02-01T04:31:40;-1.30;99.90
17740;DHT22;8990;33.226;-97.150;2023-02-01T04:34:11;-1.40;99.90
17740;DHT22;8990;33.226;-97.150;2023-02-01T04:36:40;-1.30;99.90
17740;DHT22;8990;33.226;-97.150;2023-02-01T04:39:11;-1.40;99.90
17740;DHT22;8990;33.226;-97.150;2023-02-01T04:41:41;-1.30;99.90
17740;DHT22;8990;33.226;-97.150;2023-02-01T04:44:14;-1.40;99.90
17740;DHT22;8990;33.226;-97.150;2023-02-01T04:46:43;-1.40;99.90
17740;DHT22;8990;33.226;-97.150;2023-02-01T04:49:14;-1.50;99.90
17740;DHT22;8990;33.226;-97.150;2023-02-01T04:51:44;-1.40;99.90
17740;DHT22;8990;33.226;-97.150;2023-02-01T04:54:16;-1.30;99.90
17740;DHT22;8990;33.226;-97.150;2023-02-01T04:56:46;-1.40;99.90
17740;DHT22;8990;33.226;-97.150;2023-02-01T04:59:16;-1.50;99.90
17740;DHT22;8990;33.226;-97.150;2023-02-01T05:01:46;-1.40;99.90
17740;DHT22;8990;33.226;-97.150;2023-02-01T05:04:15;-1.50;99.90
17740;DHT22;8990;33.226;-97.150;2023-02-01T05:06:45;-1.40;99.90
17740;DHT22;8990;33.226;-97.150;2023-02-01T05:09:17;-1.30;99.90
17740;DHT22;8990;33.226;-97.150;2023-02-01T05:11:48;-1.40;99.90
17740;DHT22;8990;33.226;-97.150;2023-02-01T05:14:35;-1.30;99.90
17740;DHT22;8990;33.226;-97.150;2023-02-01T05:17:05;-1.30;99.90
17740;DHT22;8990;33.226;-97.150;2023-02-01T05:19:35;-1.30;99.90
17740;DHT22;8990;33.226;-97.150;2023-02-01T05:22:04;-1.20;99.90
17740;DHT22;8990;33.226;-97.150;2023-02-01T05:24:36;-1.40;99.90
17740;DHT22;8990;33.226;-97.150;2023-02-01T05:27:07;-1.40;99.90
17740;DHT22;8990;33.226;-97.150;2023-02-01T05:29:38;-1.30;99.90
17740;DHT22;8990;33.226;-97.150;2023-02-01T05:32:08;-1.30;99.90
17740;DHT22;8990;33.226;-97.150;2023-02-01T05:34:38;-1.40;99.90
17740;DHT22;8990;33.226;-97.150;2023-02-01T05:37:09;-1.30;99.90
17740;DHT22;8990;33.226;-97.150;2023-02-01T05:39:41;-1.40;99.90
17740;DHT22;8990;33.226;-97.150;2023-02-01T05:42:12;-1.30;99.90
17740;DHT22;8990;33.226;-97.150;2023-02-01T05:44:42;-1.40;99.90
17740;DHT22;8990;33.226;-97.150;2023-02-01T05:47:11;-1.20;99.90
17740;DHT22;8990;33.226;-97.150;2023-02-01T05:49:41;-1.10;99.90
17740;DHT22;8990;33.226;-97.150;2023-02-01T05:52:10;-1.20;99.90
17740;DHT22;8990;33.226;-97.150;2023-02-01T05:54:42;-1.30;99.90
17740;DHT22;8990;33.226;-97.150;2023-02-01T05:57:12;-1.30;99.90
17740;DHT22;8990;33.226;-97.150;2023-02-01T05:59:41;-1.20;99.90
17740;DHT22;8990;33.226;-97.150;2023-02-01T06:02:12;-1.30;99.90
17740;DHT22;8990;33.226;-97.150;2023-02-01T06:04:43;-1.30;99.90
17740;DHT22;8990;33.226;-97.150;2023-02-01T06:07:12;-1.10;99.90
17740;DHT22;8990;33.226;-97.150;2023-02-01T06:09:43;-1.20;99.90
17740;DHT22;8990;33.226;-97.150;2023-02-01T06:12:12;-1.10;99.90
17740;DHT22;8990;33.226;-97.150;2023-02-01T06:14:42;-1.30;99.90
17740;DHT22;8990;33.226;-97.150;2023-02-01T06:17:12;-1.30;99.90
17740;DHT22;8990;33.226;-97.150;2023-02-01T06:19:42;-1.40;99.90
17740;DHT22;8990;33.226;-97.150;2023-02-01T06:22:11;-1.30;99.90
17740;DHT22;8990;33.226;-97.150;2023-02-01T06:24:42;-1.30;99.90
17740;DHT22;8990;33.226;-97.150;2023-02-01T06:27:12;-1.20;99.90
17740;DHT22;8990;33.226;-97.150;2023-02-01T06:29:42;-1.40;99.90
17740;DHT22;8990;33.226;-97.150;2023-02-01T06:32:11;-1.40;99.90
17740;DHT22;8990;33.226;-97.150;2023-02-01T06:34:43;-1.40;99.90
17740;DHT22;8990;33.226;-97.150;2023-02-01T06:37:13;-1.30;99.90
17740;DHT22;8990;33.226;-97.150;2023-02-01T06:39:44;-1.40;99.90
17740;DHT22;8990;33.226;-97.150;2023-02-01T06:42:13;-1.50;99.90
17740;DHT22;8990;33.226;-97.150;2023-02-01T06:44:42;-1.40;99.90
17740;DHT22;8990;33.226;-97.150;2023-02-01T06:47:12;-1.50;99.90
17740;DHT22;8990;33.226;-97.150;2023-02-01T06:49:41;-1.50;99.90
17740;DHT22;8990;33.226;-97.150;2023-02-01T06:52:10;-1.50;99.90
17740;DHT22;8990;33.226;-97.150;2023-02-01T06:54:40;-1.50;99.90
17740;DHT22;8990;33.226;-97.150;2023-02-01T06:57:10;-1.40;99.90
17740;DHT22;8990;33.226;-97.150;2023-02-01T06:59:41;-1.50;99.90
17740;DHT22;8990;33.226;-97.150;2023-02-01T07:02:11;-1.30;99.90
17740;DHT22;8990;33.226;-97.150;2023-02-01T07:04:44;-1.50;99.90
17740;DHT22;8990;33.226;-97.150;2023-02-01T07:07:15;-1.40;99.90
17740;DHT22;8990;33.226;-97.150;2023-02-01T07:09:46;-1.50;99.90
17740;DHT22;8990;33.226;-97.150;2023-02-01T07:12:19;-1.50;99.90
17740;DHT22;8990;33.226;-97.150;2023-02-01T07:14:49;-1.40;99.90
17740;DHT22;8990;33.226;-97.150;2023-02-01T07:17:19;-1.40;99.90
17740;DHT22;8990;33.226;-97.150;2023-02-01T07:19:50;-1.30;99.90
17740;DHT22;8990;33.226;-97.150;2023-02-01T07:22:19;-1.30;99.90
17740;DHT22;8990;33.226;-97.150;2023-02-01T07:24:49;-1.50;99.90
17740;DHT22;8990;33.226;-97.150;2023-02-01T07:27:20;-1.40;99.90
17740;DHT22;8990;33.226;-97.150;2023-02-01T07:29:54;-1.30;99.90
17740;DHT22;8990;33.226;-97.150;2023-02-01T07:32:29;-1.40;99.90
17740;DHT22;8990;33.226;-97.150;2023-02-01T07:34:58;-1.50;99.90
17740;DHT22;8990;33.226;-97.150;2023-02-01T07:37:28;-1.50;99.90
17740;DHT22;8990;33.226;-97.150;2023-02-01T07:39:57;-1.50;99.90
17740;DHT22;8990;33.226;-97.150;2023-02-01T07:42:29;-1.50;99.90
17740;DHT22;8990;33.226;-97.150;2023-02-01T07:44:58;-1.50;99.90
17740;DHT22;8990;33.226;-97.150;2023-02-01T07:47:27;-1.60;99.90
17740;DHT22;8990;33.226;-97.150;2023-02-01T07:49:57;-1.60;99.90
17740;DHT22;8990;33.226;-97.150;2023-02-01T07:52:28;-1.50;99.90
17740;DHT22;8990;33.226;-97.150;2023-02-01T07:54:58;-1.60;99.90
17740;DHT22;8990;33.226;-97.150;2023-02-01T07:57:29;-1.50;99.90
17740;DHT22;8990;33.226;-97.150;2023-02-01T08:00:19;-1.60;99.90
17740;DHT22;8990;33.226;-97.150;2023-02-01T08:03:19;-1.60;99.90
17740;DHT22;8990;33.226;-97.150;2023-02-01T08:05:48;-1.70;99.90
17740;DHT22;8990;33.226;-97.150;2023-02-01T08:08:23;-1.70;99.90
17740;DHT22;8990;33.226;-97.150;2023-02-01T08:10:57;-1.60;99.90
17740;DHT22;8990;33.226;-97.150;2023-02-01T08:13:29;-1.60;99.90
17740;DHT22;8990;33.226;-97.150;2023-02-01T08:15:58;-1.60;99.90
17740;DHT22;8990;33.226;-97.150;2023-02-01T08:18:29;-1.60;99.90
17740;DHT22;8990;33.226;-97.150;2023-02-01T08:21:03;-1.60;99.90
17740;DHT22;8990;33.226;-97.150;2023-02-01T08:23:33;-1.50;99.90
17740;DHT22;8990;33.226;-97.150;2023-02-01T08:26:12;-1.60;99.90
17740;DHT22;8990;33.226;-97.150;2023-02-01T08:28:48;-1.70;99.90
17740;DHT22;8990;33.226;-97.150;2023-02-01T08:31:19;-1.60;99.90
17740;DHT22;8990;33.226;-97.150;2023-02-01T08:33:50;-1.70;99.90
17740;DHT22;8990;33.226;-97.150;2023-02-01T08:36:20;-1.70;99.90
17740;DHT22;8990;33.226;-97.150;2023-02-01T08:38:51;-1.80;99.90
17740;DHT22;8990;33.226;-97.150;2023-02-01T08:41:22;-1.60;99.90
17740;DHT22;8990;33.226;-97.150;2023-02-01T08:43:54;-1.70;99.90
17740;DHT22;8990;33.226;-97.150;2023-02-01T08:46:23;-1.70;99.90
17740;DHT22;8990;33.226;-97.150;2023-02-01T08:48:53;-1.70;99.90
17740;DHT22;8990;33.226;-97.150;2023-02-01T08:51:24;-1.70;99.90
17740;DHT22;8990;33.226;-97.150;2023-02-01T08:53:55;-1.60;99.90
17740;DHT22;8990;33.226;-97.150;2023-02-01T08:56:24;-1.70;99.90
17740;DHT22;8990;33.226;-97.150;2023-02-01T08:58:56;-1.70;99.90
17740;DHT22;8990;33.226;-97.150;2023-02-01T09:01:25;-1.70;99.90
17740;DHT22;8990;33.226;-97.150;2023-02-01T09:03:54;-1.80;99.90
17740;DHT22;8990;33.226;-97.150;2023-02-01T09:06:24;-1.70;99.90
17740;DHT22;8990;33.226;-97.150;2023-02-01T09:08:53;-1.70;99.90
17740;DHT22;8990;33.226;-97.150;2023-02-01T09:11:22;-1.80;99.90
17740;DHT22;8990;33.226;-97.150;2023-02-01T09:13:52;-1.80;99.90
17740;DHT22;8990;33.226;-97.150;2023-02-01T09:16:24;-1.80;99.90
17740;DHT22;8990;33.226;-97.150;2023-02-01T09:18:53;-1.80;99.90
17740;DHT22;8990;33.226;-97.150;2023-02-01T09:21:23;-1.90;99.90
17740;DHT22;8990;33.226;-97.150;2023-02-01T09:23:52;-1.80;99.90
17740;DHT22;8990;33.226;-97.150;2023-02-01T09:26:21;-1.80;99.90
17740;DHT22;8990;33.226;-97.150;2023-02-01T09:28:52;-1.80;99.90
17740;DHT22;8990;33.226;-97.150;2023-02-01T09:31:23;-1.80;99.90
17740;DHT22;8990;33.226;-97.150;2023-02-01T09:33:53;-1.80;99.90
17740;DHT22;8990;33.226;-97.150;2023-02-01T09:36:23;-1.80;99.90
17740;DHT22;8990;33.226;-97.150;2023-02-01T09:38:53;-1.80;99.90
17740;DHT22;8990;33.226;-97.150;2023-02-01T09:41:32;-1.80;99.90
17740;DHT22;8990;33.226;-97.150;2023-02-01T09:44:07;-1.90;99.90
17740;DHT22;8990;33.226;-97.150;2023-02-01T09:46:41;-1.70;99.90
17740;DHT22;8990;33.226;-97.150;2023-02-01T09:49:13;-1.80;99.90
17740;DHT22;8990;33.226;-97.150;2023-02-01T09:51:46;-1.90;99.90
17740;DHT22;8990;33.226;-97.150;2023-02-01T09:54:19;-1.80;99.90
17740;DHT22;8990;33.226;-97.150;2023-02-01T09:56:51;-1.80;99.90
17740;DHT22;8990;33.226;-97.150;2023-02-01T09:59:32;-1.90;99.90
17740;DHT22;8990;33.226;-97.150;2023-02-01T10:02:12;-1.80;99.90
17740;DHT22;8990;33.226;-97.150;2023-02-01T10:04:43;-1.80;99.90
17740;DHT22;8990;33.226;-97.150;2023-02-01T10:07:21;-1.70;99.90
17740;DHT22;8990;33.226;-97.150;2023-02-01T10:09:59;-1.70;99.90
17740;DHT22;8990;33.226;-97.150;2023-02-01T10:12:48;-1.60;99.90
17740;DHT22;8990;33.226;-97.150;2023-02-01T10:15:35;-1.80;99.90
17740;DHT22;8990;33.226;-97.150;2023-02-01T10:18:22;-1.80;99.90
17740;DHT22;8990;33.226;-97.150;2023-02-01T10:21:02;-1.60;99.90
17740;DHT22;8990;33.226;-97.150;2023-02-01T10:23:51;-1.80;99.90
17740;DHT22;8990;33.226;-97.150;2023-02-01T10:26:23;-1.80;99.90
17740;DHT22;8990;33.226;-97.150;2023-02-01T10:28:55;-1.70;99.90
17740;DHT22;8990;33.226;-97.150;2023-02-01T10:31:26;-1.80;99.90
17740;DHT22;8990;33.226;-97.150;2023-02-01T10:34:00;-1.80;99.90
17740;DHT22;8990;33.226;-97.150;2023-02-01T10:36:34;-1.70;99.90
17740;DHT22;8990;33.226;-97.150;2023-02-01T10:39:05;-1.70;99.90
17740;DHT22;8990;33.226;-97.150;2023-02-01T10:41:36;-1.80;99.90
17740;DHT22;8990;33.226;-97.150;2023-02-01T10:44:09;-1.70;99.90
17740;DHT22;8990;33.226;-97.150;2023-02-01T10:46:40;-1.70;99.90
17740;DHT22;8990;33.226;-97.150;2023-02-01T10:49:18;-1.70;99.90
17740;DHT22;8990;33.226;-97.150;2023-02-01T10:51:54;-1.70;99.90
17740;DHT22;8990;33.226;-97.150;2023-02-01T10:54:33;-1.80;99.90
17740;DHT22;8990;33.226;-97.150;2023-02-01T10:57:07;-1.90;99.90
17740;DHT22;8990;33.226;-97.150;2023-02-01T10:59:37;-1.80;99.90
17740;DHT22;8990;33.226;-97.150;2023-02-01T11:02:17;-1.70;99.90
17740;DHT22;8990;33.226;-97.150;2023-02-01T11:04:50;-1.70;99.90
17740;DHT22;8990;33.226;-97.150;2023-02-01T11:07:24;-1.70;99.90
17740;DHT22;8990;33.226;-97.150;2023-02-01T11:09:55;-1.80;99.90
17740;DHT22;8990;33.226;-97.150;2023-02-01T11:12:29;-1.70;99.90
17740;DHT22;8990;33.226;-97.150;2023-02-01T11:15:02;-1.70;99.90
17740;DHT22;8990;33.226;-97.150;2023-02-01T11:17:35;-1.70;99.90
17740;DHT22;8990;33.226;-97.150;2023-02-01T11:20:12;-1.80;99.90
17740;DHT22;8990;33.226;-97.150;2023-02-01T11:22:46;-1.80;99.90
17740;DHT22;8990;33.226;-97.150;2023-02-01T11:25:17;-1.80;99.90
17740;DHT22;8990;33.226;-97.150;2023-02-01T11:27:48;-1.70;99.90
17740;DHT22;8990;33.226;-97.150;2023-02-01T11:30:27;-1.80;99.90
17740;DHT22;8990;33.226;-97.150;2023-02-01T11:32:59;-1.90;99.90
17740;DHT22;8990;33.226;-97.150;2023-02-01T11:35:32;-1.80;99.90
17740;DHT22;8990;33.226;-97.150;2023-02-01T11:38:12;-1.80;99.90
17740;DHT22;8990;33.226;-97.150;2023-02-01T11:40:43;-1.70;99.90
17740;DHT22;8990;33.226;-97.150;2023-02-01T11:43:17;-1.90;99.90
17740;DHT22;8990;33.226;-97.150;2023-02-01T11:45:55;-1.80;99.90
17740;DHT22;8990;33.226;-97.150;2023-02-01T11:48:26;-1.90;99.90
17740;DHT22;8990;33.226;-97.150;2023-02-01T11:51:15;-1.90;99.90
17740;DHT22;8990;33.226;-97.150;2023-02-01T11:54:03;-1.90;99.90
17740;DHT22;8990;33.226;-97.150;2023-02-01T11:56:39;-1.90;99.90
17740;DHT22;8990;33.226;-97.150;2023-02-01T11:59:22;-1.90;99.90
17740;DHT22;8990;33.226;-97.150;2023-02-01T12:02:18;-1.80;99.90
17740;DHT22;8990;33.226;-97.150;2023-02-01T12:05:05;-1.80;99.90
17740;DHT22;8990;33.226;-97.150;2023-02-01T12:07:57;-1.80;99.90
17740;DHT22;8990;33.226;-97.150;2023-02-01T12:10:38;-1.80;99.90
17740;DHT22;8990;33.226;-97.150;2023-02-01T12:13:20;-1.90;99.90
17740;DHT22;8990;33.226;-97.150;2023-02-01T12:16:01;-1.80;99.90
17740;DHT22;8990;33.226;-97.150;2023-02-01T12:21:48;-1.70;99.90
17740;DHT22;8990;33.226;-97.150;2023-02-01T12:27:47;-1.60;99.90
17740;DHT22;8990;33.226;-97.150;2023-02-01T12:30:31;-1.60;99.90
17740;DHT22;8990;33.226;-97.150;2023-02-01T12:33:13;-1.60;99.90
17740;DHT22;8990;33.226;-97.150;2023-02-01T12:36:11;-1.50;99.90
17740;DHT22;8990;33.226;-97.150;2023-02-01T12:38:52;-1.60;99.90
17740;DHT22;8990;33.226;-97.150;2023-02-01T12:41:47;-1.70;99.90
17740;DHT22;8990;33.226;-97.150;2023-02-01T12:44:33;-1.70;99.90
17740;DHT22;8990;33.226;-97.150;2023-02-01T12:47:10;-1.70;99.90
17740;DHT22;8990;33.226;-97.150;2023-02-01T12:49:47;-1.60;99.90
17740;DHT22;8990;33.226;-97.150;2023-02-01T12:52:20;-1.60;99.90
17740;DHT22;8990;33.226;-97.150;2023-02-01T12:54:57;-1.70;99.90
17740;DHT22;8990;33.226;-97.150;2023-02-01T12:57:32;-1.80;99.90
17740;DHT22;8990;33.226;-97.150;2023-02-01T13:00:12;-1.70;99.90
17740;DHT22;8990;33.226;-97.150;2023-02-01T13:02:51;-1.60;99.90
17740;DHT22;8990;33.226;-97.150;2023-02-01T13:05:22;-1.60;99.90
17740;DHT22;8990;33.226;-97.150;2023-02-01T13:07:55;-1.50;99.90
17740;DHT22;8990;33.226;-97.150;2023-02-01T13:10:32;-1.60;99.90
17740;DHT22;8990;33.226;-97.150;2023-02-01T13:13:11;-1.60;99.90
17740;DHT22;8990;33.226;-97.150;2023-02-01T13:15:46;-1.60;99.90
17740;DHT22;8990;33.226;-97.150;2023-02-01T13:18:22;-1.60;99.90
17740;DHT22;8990;33.226;-97.150;2023-02-01T13:21:01;-1.50;99.90
17740;DHT22;8990;33.226;-97.150;2023-02-01T13:23:34;-1.60;99.90
17740;DHT22;8990;33.226;-97.150;2023-02-01T13:26:05;-1.60;99.90
17740;DHT22;8990;33.226;-97.150;2023-02-01T13:28:41;-1.60;99.90
17740;DHT22;8990;33.226;-97.150;2023-02-01T13:34:57;-1.40;99.90
17740;DHT22;8990;33.226;-97.150;2023-02-01T13:37:39;-1.50;99.90
17740;DHT22;8990;33.226;-97.150;2023-02-01T13:40:33;-1.50;99.90
17740;DHT22;8990;33.226;-97.150;2023-02-01T13:43:10;-1.40;99.90
17740;DHT22;8990;33.226;-97.150;2023-02-01T13:45:47;-1.50;99.90
17740;DHT22;8990;33.226;-97.150;2023-02-01T13:48:23;-1.50;99.90
17740;DHT22;8990;33.226;-97.150;2023-02-01T13:50:55;-1.40;99.90
17740;DHT22;8990;33.226;-97.150;2023-02-01T13:53:29;-1.50;99.90
17740;DHT22;8990;33.226;-97.150;2023-02-01T13:56:00;-1.40;99.90
17740;DHT22;8990;33.226;-97.150;2023-02-01T13:58:35;-1.40;99.90
17740;DHT22;8990;33.226;-97.150;2023-02-01T14:01:33;-1.50;99.90
17740;DHT22;8990;33.226;-97.150;2023-02-01T14:04:05;-1.20;99.90
17740;DHT22;8990;33.226;-97.150;2023-02-01T14:06:42;-1.40;99.90
17740;DHT22;8990;33.226;-97.150;2023-02-01T14:09:18;-1.20;99.90
17740;DHT22;8990;33.226;-97.150;2023-02-01T14:11:50;-1.30;99.90
17740;DHT22;8990;33.226;-97.150;2023-02-01T14:14:45;-1.30;99.90
17740;DHT22;8990;33.226;-97.150;2023-02-01T14:17:38;-1.30;99.90
17740;DHT22;8990;33.226;-97.150;2023-02-01T14:23:25;-1.30;99.90
17740;DHT22;8990;33.226;-97.150;2023-02-01T14:26:18;-1.20;99.90
17740;DHT22;8990;33.226;-97.150;2023-02-01T14:29:01;-1.10;99.90
17740;DHT22;8990;33.226;-97.150;2023-02-01T14:31:41;-0.90;99.90
17740;DHT22;8990;33.226;-97.150;2023-02-01T14:34:16;-1.00;99.90
17740;DHT22;8990;33.226;-97.150;2023-02-01T14:36:50;-0.90;99.90
17740;DHT22;8990;33.226;-97.150;2023-02-01T14:39:26;-0.80;99.90
17740;DHT22;8990;33.226;-97.150;2023-02-01T14:41:58;-0.80;99.90
17740;DHT22;8990;33.226;-97.150;2023-02-01T14:44:34;-1.00;99.90
17740;DHT22;8990;33.226;-97.150;2023-02-01T14:47:31;-1.00;99.90
17740;DHT22;8990;33.226;-97.150;2023-02-01T14:50:27;-0.60;99.90
17740;DHT22;8990;33.226;-97.150;2023-02-01T14:53:23;-0.50;99.90
17740;DHT22;8990;33.226;-97.150;2023-02-01T14:56:00;-0.60;99.90
17740;DHT22;8990;33.226;-97.150;2023-02-01T14:58:40;-0.70;99.90
17740;DHT22;8990;33.226;-97.150;2023-02-01T15:01:21;-0.60;99.90
17740;DHT22;8990;33.226;-97.150;2023-02-01T15:03:55;-0.50;99.90
17740;DHT22;8990;33.226;-97.150;2023-02-01T15:06:33;-0.70;99.90
17740;DHT22;8990;33.226;-97.150;2023-02-01T15:09:10;-0.70;99.90
17740;DHT22;8990;33.226;-97.150;2023-02-01T15:12:00;-0.60;99.90
17740;DHT22;8990;33.226;-97.150;2023-02-01T15:14:33;-0.60;99.90
17740;DHT22;8990;33.226;-97.150;2023-02-01T15:17:03;-0.60;99.90
17740;DHT22;8990;33.226;-97.150;2023-02-01T15:19:53;-0.50;99.90
17740;DHT22;8990;33.226;-97.150;2023-02-01T15:22:24;-0.50;99.90
17740;DHT22;8990;33.226;-97.150;2023-02-01T15:24:56;-0.30;99.90
17740;DHT22;8990;33.226;-97.150;2023-02-01T15:27:26;-0.40;99.90
17740;DHT22;8990;33.226;-97.150;2023-02-01T15:30:06;-0.40;99.90
17740;DHT22;8990;33.226;-97.150;2023-02-01T15:32:36;-0.30;99.90
17740;DHT22;8990;33.226;-97.150;2023-02-01T15:35:34;-0.40;99.90
17740;DHT22;8990;33.226;-97.150;2023-02-01T15:38:40;-0.50;99.90
17740;DHT22;8990;33.226;-97.150;2023-02-01T15:41:13;-0.40;99.90
17740;DHT22;8990;33.226;-97.150;2023-02-01T15:43:47;-0.50;99.90
17740;DHT22;8990;33.226;-97.150;2023-02-01T15:46:21;-0.50;99.90
17740;DHT22;8990;33.226;-97.150;2023-02-01T15:48:52;-0.30;99.90
17740;DHT22;8990;33.226;-97.150;2023-02-01T15:51:23;-0.40;99.90
17740;DHT22;8990;33.226;-97.150;2023-02-01T15:53:58;-0.40;99.90
17740;DHT22;8990;33.226;-97.150;2023-02-01T15:56:29;-0.40;99.90
17740;DHT22;8990;33.226;-97.150;2023-02-01T15:59:04;-0.40;99.90
17740;DHT22;8990;33.226;-97.150;2023-02-01T16:01:37;-0.40;99.90
17740;DHT22;8990;33.226;-97.150;2023-02-01T16:04:16;-0.40;99.90
17740;DHT22;8990;33.226;-97.150;2023-02-01T16:06:48;-0.40;99.90
17740;DHT22;8990;33.226;-97.150;2023-02-01T16:09:22;-0.40;99.90
17740;DHT22;8990;33.226;-97.150;2023-02-01T16:11:56;-0.20;99.90
17740;DHT22;8990;33.226;-97.150;2023-02-01T16:14:25;-0.10;99.90
17740;DHT22;8990;33.226;-97.150;2023-02-01T16:17:14;-0.10;99.90
17740;DHT22;8990;33.226;-97.150;2023-02-01T16:19:43;-0.10;99.90